Time;durP1;ratioP1;P1;durP2;ratioP2;P2;SDS_P1;SDS_P2;PMS_P1;PMS_P2;Temp;Humidity;BMP_temperature;BMP_pressure;BME280_temperature;BME280_humidity;BME280_pressure;Samples;Min_cycle;Max_cycle;Signal;HPM_P1;HPM_P2
2022/04/04 00:00:00;;;;;;;7.0;6.4;;;;;;;2.7;100.0;101670;;;;
2022/04/04 00:01:00;;;;;;;7.0;6.4;;;;;;;2.6;100.0;101670;;;;
2022/04/04 00:02:00;;;;;;;7.5;6.8;;;;;;;2.6;100.0;101670;;;;
2022/04/04 00:03:00;;;;;;;7.5;6.8;;;;;;;2.6;100.0;101670;;;;
2022/04/04 00:04:00;;;;;;;7.5;6.8;;;;;;;2.6;100.0;101670;;;;
2022/04/04 00:05:01;;;;;;;7.5;6.8;;;;;;;2.6;100.0;101660;;;;
2022/04/04 00:06:00;;;;;;;7.5;6.8;;;;;;;2.6;100.0;101660;;;;
2022/04/04 00:07:02;;;;;;;7.5;6.8;;;;;;;2.7;100.0;101660;;;;
2022/04/04 00:08:00;;;;;;;7.5;6.8;;;;;;;2.7;100.0;101660;;;;
2022/04/04 00:09:00;;;;;;;7.5;6.8;;;;;;;2.6;100.0;101660;;;;
2022/04/04 00:10:00;;;;;;;7.5;6.8;;;;;;;2.6;100.0;101660;;;;
2022/04/04 00:11:00;;;;;;;7.5;6.8;;;;;;;2.6;100.0;101660;;;;
2022/04/04 00:12:00;;;;;;;7.5;6.8;;;;;;;2.6;100.0;101660;;;;
2022/04/04 00:13:00;;;;;;;7.5;6.8;;;;;;;2.5;100.0;101660;;;;
2022/04/04 00:14:00;;;;;;;7.5;6.8;;;;;;;2.5;100.0;101660;;;;
2022/04/04 00:15:00;;;;;;;7.5;6.8;;;;;;;2.5;100.0;101650;;;;
2022/04/04 00:16:00;;;;;;;7.5;6.8;;;;;;;2.5;100.0;101650;;;;
2022/04/04 00:17:00;;;;;;;7.5;6.8;;;;;;;2.5;100.0;101650;;;;
2022/04/04 00:18:08;;;;;;;7.5;6.8;;;;;;;2.5;100.0;101650;;;;
2022/04/04 00:19:00;;;;;;;7.5;6.8;;;;;;;2.5;100.0;101650;;;;
2022/04/04 00:20:00;;;;;;;7.5;6.8;;;;;;;2.5;100.0;101650;;;;
2022/04/04 00:21:00;;;;;;;7.5;6.8;;;;;;;2.4;100.0;101650;;;;
2022/04/04 00:22:00;;;;;;;8.1;7.5;;;;;;;2.4;100.0;101650;;;;
2022/04/04 00:23:00;;;;;;;8.1;7.5;;;;;;;2.5;100.0;101640;;;;
2022/04/04 00:24:00;;;;;;;8.1;7.5;;;;;;;2.5;100.0;101640;;;;
2022/04/04 00:25:00;;;;;;;8.1;7.5;;;;;;;2.4;100.0;101640;;;;
2022/04/04 00:26:00;;;;;;;8.1;7.5;;;;;;;2.4;100.0;101640;;;;
2022/04/04 00:27:01;;;;;;;8.1;7.5;;;;;;;2.5;100.0;101630;;;;
2022/04/04 00:28:00;;;;;;;8.1;7.5;;;;;;;2.5;100.0;101630;;;;
2022/04/04 00:29:00;;;;;;;8.1;7.5;;;;;;;2.4;100.0;101630;;;;
2022/04/04 00:30:00;;;;;;;8.1;7.5;;;;;;;2.4;100.0;101630;;;;
2022/04/04 00:31:00;;;;;;;8.1;7.5;;;;;;;2.5;100.0;101630;;;;
2022/04/04 00:32:00;;;;;;;8.1;7.5;;;;;;;2.5;100.0;101630;;;;
2022/04/04 00:33:00;;;;;;;8.1;7.5;;;;;;;2.5;100.0;101630;;;;
2022/04/04 00:34:00;;;;;;;8.1;7.5;;;;;;;2.5;100.0;101630;;;;
2022/04/04 00:35:00;;;;;;;8.1;7.5;;;;;;;2.5;100.0;101620;;;;
2022/04/04 00:36:00;;;;;;;8.1;7.5;;;;;;;2.5;100.0;101620;;;;
2022/04/04 00:37:00;;;;;;;8.1;7.5;;;;;;;2.4;100.0;101620;;;;
2022/04/04 00:38:01;;;;;;;8.1;7.5;;;;;;;2.4;100.0;101620;;;;
2022/04/04 00:39:00;;;;;;;8.1;7.5;;;;;;;2.3;100.0;101610;;;;
2022/04/04 00:40:00;;;;;;;8.1;7.5;;;;;;;2.3;100.0;101610;;;;
2022/04/04 00:41:00;;;;;;;8.1;7.5;;;;;;;2.4;100.0;101610;;;;
2022/04/04 00:42:00;;;;;;;8.3;7.5;;;;;;;2.4;100.0;101610;;;;
2022/04/04 00:43:00;;;;;;;8.3;7.5;;;;;;;2.3;100.0;101610;;;;
2022/04/04 00:44:00;;;;;;;8.3;7.5;;;;;;;2.3;100.0;101610;;;;
2022/04/04 00:45:00;;;;;;;8.3;7.5;;;;;;;2.2;100.0;101610;;;;
2022/04/04 00:46:00;;;;;;;8.3;7.5;;;;;;;2.2;100.0;101610;;;;
2022/04/04 00:47:01;;;;;;;8.3;7.5;;;;;;;2.3;100.0;101610;;;;
2022/04/04 00:48:00;;;;;;;8.3;7.5;;;;;;;2.3;100.0;101610;;;;
2022/04/04 00:49:00;;;;;;;8.3;7.5;;;;;;;2.2;100.0;101610;;;;
2022/04/04 00:50:00;;;;;;;8.3;7.5;;;;;;;2.2;100.0;101610;;;;
2022/04/04 00:51:01;;;;;;;8.3;7.5;;;;;;;2.2;100.0;101600;;;;
2022/04/04 00:52:00;;;;;;;8.3;7.5;;;;;;;2.2;100.0;101600;;;;
2022/04/04 00:53:01;;;;;;;8.3;7.5;;;;;;;2.2;100.0;101600;;;;
2022/04/04 00:54:00;;;;;;;8.3;7.5;;;;;;;2.2;100.0;101600;;;;
2022/04/04 00:55:00;;;;;;;8.3;7.5;;;;;;;2.4;100.0;101590;;;;
2022/04/04 00:56:00;;;;;;;8.3;7.5;;;;;;;2.4;100.0;101590;;;;
2022/04/04 00:57:01;;;;;;;8.3;7.5;;;;;;;2.2;100.0;101600;;;;
2022/04/04 00:58:00;;;;;;;8.3;7.5;;;;;;;2.2;100.0;101600;;;;
2022/04/04 00:59:00;;;;;;;8.3;7.5;;;;;;;2.2;100.0;101590;;;;
2022/04/04 01:00:00;;;;;;;8.3;7.5;;;;;;;2.2;100.0;101590;;;;
2022/04/04 01:01:00;;;;;;;8.3;7.5;;;;;;;2.2;100.0;101590;;;;
2022/04/04 01:02:00;;;;;;;9.7;8.8;;;;;;;2.2;100.0;101590;;;;
2022/04/04 01:03:00;;;;;;;9.7;8.8;;;;;;;2.1;100.0;101590;;;;
2022/04/04 01:04:01;;;;;;;9.7;8.8;;;;;;;2.1;100.0;101590;;;;
2022/04/04 01:05:00;;;;;;;9.7;8.8;;;;;;;2.1;100.0;101580;;;;
2022/04/04 01:06:00;;;;;;;9.7;8.8;;;;;;;2.1;100.0;101580;;;;
2022/04/04 01:07:01;;;;;;;9.7;8.8;;;;;;;2.2;100.0;101580;;;;
2022/04/04 01:08:00;;;;;;;9.7;8.8;;;;;;;2.2;100.0;101580;;;;
2022/04/04 01:09:00;;;;;;;9.7;8.8;;;;;;;2.2;100.0;101580;;;;
2022/04/04 01:10:00;;;;;;;9.7;8.8;;;;;;;2.2;100.0;101580;;;;
2022/04/04 01:11:00;;;;;;;9.7;8.8;;;;;;;2.1;100.0;101580;;;;
2022/04/04 01:12:02;;;;;;;9.7;8.8;;;;;;;2.1;100.0;101580;;;;
2022/04/04 01:13:00;;;;;;;9.7;8.8;;;;;;;2.0;100.0;101570;;;;
2022/04/04 01:14:00;;;;;;;9.7;8.8;;;;;;;2.0;100.0;101570;;;;
2022/04/04 01:15:00;;;;;;;9.7;8.8;;;;;;;2.0;100.0;101570;;;;
2022/04/04 01:16:00;;;;;;;9.7;8.8;;;;;;;2.0;100.0;101570;;;;
2022/04/04 01:17:00;;;;;;;9.7;8.8;;;;;;;1.9;100.0;101570;;;;
2022/04/04 01:18:00;;;;;;;9.7;8.8;;;;;;;1.9;100.0;101570;;;;
2022/04/04 01:19:00;;;;;;;9.7;8.8;;;;;;;2.0;100.0;101570;;;;
2022/04/04 01:20:00;;;;;;;9.7;8.8;;;;;;;2.0;100.0;101570;;;;
2022/04/04 01:21:00;;;;;;;9.7;8.8;;;;;;;1.9;100.0;101560;;;;
2022/04/04 01:22:00;;;;;;;12.0;11.0;;;;;;;1.9;100.0;101560;;;;
2022/04/04 01:23:00;;;;;;;12.0;11.0;;;;;;;1.9;100.0;101560;;;;
2022/04/04 01:24:02;;;;;;;12.0;11.0;;;;;;;1.9;100.0;101560;;;;
2022/04/04 01:25:04;;;;;;;12.0;11.0;;;;;;;1.9;100.0;101560;;;;
2022/04/04 01:26:00;;;;;;;12.0;11.0;;;;;;;1.9;100.0;101560;;;;
2022/04/04 01:27:00;;;;;;;12.0;11.0;;;;;;;1.9;100.0;101550;;;;
2022/04/04 01:28:00;;;;;;;12.0;11.0;;;;;;;1.9;100.0;101550;;;;
2022/04/04 01:29:00;;;;;;;12.0;11.0;;;;;;;1.8;100.0;101550;;;;
2022/04/04 01:30:01;;;;;;;12.0;11.0;;;;;;;1.8;100.0;101550;;;;
2022/04/04 01:31:00;;;;;;;12.0;11.0;;;;;;;1.9;100.0;101540;;;;
2022/04/04 01:32:00;;;;;;;12.0;11.0;;;;;;;1.9;100.0;101540;;;;
2022/04/04 01:33:00;;;;;;;12.0;11.0;;;;;;;1.9;100.0;101540;;;;
2022/04/04 01:34:00;;;;;;;12.0;11.0;;;;;;;1.9;100.0;101540;;;;
2022/04/04 01:35:00;;;;;;;12.0;11.0;;;;;;;1.9;100.0;101540;;;;
2022/04/04 01:36:00;;;;;;;12.0;11.0;;;;;;;1.9;100.0;101540;;;;
2022/04/04 01:37:00;;;;;;;12.0;11.0;;;;;;;1.9;100.0;101530;;;;
2022/04/04 01:38:00;;;;;;;12.0;11.0;;;;;;;1.9;100.0;101530;;;;
2022/04/04 01:39:00;;;;;;;12.0;11.0;;;;;;;1.9;100.0;101520;;;;
2022/04/04 01:40:00;;;;;;;12.0;11.0;;;;;;;1.9;100.0;101520;;;;
2022/04/04 01:41:00;;;;;;;12.1;11.1;;;;;;;1.9;100.0;101520;;;;
2022/04/04 01:42:00;;;;;;;12.1;11.1;;;;;;;1.9;100.0;101520;;;;
2022/04/04 01:43:00;;;;;;;12.1;11.1;;;;;;;2.0;100.0;101510;;;;
2022/04/04 01:44:00;;;;;;;12.1;11.1;;;;;;;2.0;100.0;101510;;;;
2022/04/04 01:45:00;;;;;;;12.1;11.1;;;;;;;2.0;100.0;101510;;;;
2022/04/04 01:47:00;;;;;;;12.1;11.1;;;;;;;1.9;100.0;101510;;;;
2022/04/04 01:48:00;;;;;;;12.1;11.1;;;;;;;1.9;100.0;101510;;;;
2022/04/04 01:49:01;;;;;;;12.1;11.1;;;;;;;1.8;100.0;101500;;;;
2022/04/04 01:50:00;;;;;;;12.1;11.1;;;;;;;1.8;100.0;101500;;;;
2022/04/04 01:51:00;;;;;;;12.1;11.1;;;;;;;1.8;100.0;101490;;;;
2022/04/04 01:52:00;;;;;;;12.1;11.1;;;;;;;1.8;100.0;101490;;;;
2022/04/04 01:53:25;;;;;;;12.1;11.1;;;;;;;1.8;100.0;101490;;;;
2022/04/04 01:54:00;;;;;;;12.1;11.1;;;;;;;1.8;100.0;101490;;;;
2022/04/04 01:55:00;;;;;;;12.1;11.1;;;;;;;1.8;100.0;101490;;;;
2022/04/04 01:56:01;;;;;;;12.1;11.1;;;;;;;1.8;100.0;101490;;;;
2022/04/04 01:57:00;;;;;;;12.1;11.1;;;;;;;1.8;100.0;101480;;;;
2022/04/04 01:58:01;;;;;;;12.1;11.1;;;;;;;1.8;100.0;101480;;;;
2022/04/04 01:59:00;;;;;;;12.1;11.1;;;;;;;1.8;100.0;101480;;;;
2022/04/04 02:00:00;;;;;;;12.1;11.1;;;;;;;1.8;100.0;101480;;;;
2022/04/04 02:01:01;;;;;;;12.1;11.0;;;;;;;1.8;100.0;101470;;;;
2022/04/04 02:02:00;;;;;;;12.1;11.0;;;;;;;1.8;100.0;101470;;;;
2022/04/04 02:03:00;;;;;;;12.1;11.0;;;;;;;1.8;100.0;101470;;;;
2022/04/04 02:04:01;;;;;;;12.1;11.0;;;;;;;1.8;100.0;101470;;;;
2022/04/04 02:05:00;;;;;;;12.1;11.0;;;;;;;1.8;100.0;101470;;;;
2022/04/04 02:06:00;;;;;;;12.1;11.0;;;;;;;1.8;100.0;101470;;;;
2022/04/04 02:07:00;;;;;;;12.1;11.0;;;;;;;1.8;100.0;101460;;;;
2022/04/04 02:08:00;;;;;;;12.1;11.0;;;;;;;1.8;100.0;101460;;;;
2022/04/04 02:09:00;;;;;;;12.1;11.0;;;;;;;1.8;100.0;101460;;;;
2022/04/04 02:10:00;;;;;;;12.1;11.0;;;;;;;1.8;100.0;101460;;;;
2022/04/04 02:11:01;;;;;;;12.1;11.0;;;;;;;1.8;100.0;101450;;;;
2022/04/04 02:12:00;;;;;;;12.1;11.0;;;;;;;1.8;100.0;101450;;;;
2022/04/04 02:13:00;;;;;;;12.1;11.0;;;;;;;1.9;100.0;101450;;;;
2022/04/04 02:14:02;;;;;;;12.1;11.0;;;;;;;1.9;100.0;101450;;;;
2022/04/04 02:15:00;;;;;;;12.1;11.0;;;;;;;1.8;100.0;101450;;;;
2022/04/04 02:16:01;;;;;;;12.1;11.0;;;;;;;1.8;100.0;101450;;;;
2022/04/04 02:17:00;;;;;;;12.1;11.0;;;;;;;1.9;100.0;101450;;;;
2022/04/04 02:18:00;;;;;;;12.1;11.0;;;;;;;1.9;100.0;101450;;;;
2022/04/04 02:19:00;;;;;;;12.1;11.0;;;;;;;1.9;100.0;101450;;;;
2022/04/04 02:20:00;;;;;;;12.1;11.0;;;;;;;1.9;100.0;101450;;;;
2022/04/04 02:21:00;;;;;;;11.2;10.2;;;;;;;1.9;100.0;101450;;;;
2022/04/04 02:22:00;;;;;;;11.2;10.2;;;;;;;1.9;100.0;101450;;;;
2022/04/04 02:23:00;;;;;;;11.2;10.2;;;;;;;1.9;100.0;101440;;;;
2022/04/04 02:24:00;;;;;;;11.2;10.2;;;;;;;1.9;100.0;101440;;;;
2022/04/04 02:25:00;;;;;;;11.2;10.2;;;;;;;1.9;100.0;101440;;;;
2022/04/04 02:26:00;;;;;;;11.2;10.2;;;;;;;1.9;100.0;101440;;;;
2022/04/04 02:27:00;;;;;;;11.2;10.2;;;;;;;1.9;100.0;101440;;;;
2022/04/04 02:28:00;;;;;;;11.2;10.2;;;;;;;1.9;100.0;101440;;;;
2022/04/04 02:29:00;;;;;;;11.2;10.2;;;;;;;2.0;100.0;101430;;;;
2022/04/04 02:30:04;;;;;;;11.2;10.2;;;;;;;2.0;100.0;101430;;;;
2022/04/04 02:31:00;;;;;;;11.2;10.2;;;;;;;2.0;100.0;101420;;;;
2022/04/04 02:32:00;;;;;;;11.2;10.2;;;;;;;2.0;100.0;101420;;;;
2022/04/04 02:33:00;;;;;;;11.2;10.2;;;;;;;2.0;100.0;101420;;;;
2022/04/04 02:34:00;;;;;;;11.2;10.2;;;;;;;2.0;100.0;101420;;;;
2022/04/04 02:35:00;;;;;;;11.2;10.2;;;;;;;2.0;100.0;101410;;;;
2022/04/04 02:36:00;;;;;;;11.2;10.2;;;;;;;2.0;100.0;101410;;;;
2022/04/04 02:37:00;;;;;;;11.2;10.2;;;;;;;2.1;100.0;101410;;;;
2022/04/04 02:38:00;;;;;;;11.2;10.2;;;;;;;2.1;100.0;101410;;;;
2022/04/04 02:39:01;;;;;;;11.2;10.2;;;;;;;2.1;100.0;101410;;;;
2022/04/04 02:40:00;;;;;;;11.2;10.2;;;;;;;2.1;100.0;101410;;;;
2022/04/04 02:41:00;;;;;;;11.6;10.5;;;;;;;2.1;100.0;101410;;;;
2022/04/04 02:42:00;;;;;;;11.6;10.5;;;;;;;2.1;100.0;101410;;;;
2022/04/04 02:43:00;;;;;;;11.6;10.5;;;;;;;2.2;100.0;101400;;;;
2022/04/04 02:44:00;;;;;;;11.6;10.5;;;;;;;2.2;100.0;101400;;;;
2022/04/04 02:45:00;;;;;;;11.6;10.5;;;;;;;2.2;100.0;101390;;;;
2022/04/04 02:46:00;;;;;;;11.6;10.5;;;;;;;2.2;100.0;101390;;;;
2022/04/04 02:47:00;;;;;;;11.6;10.5;;;;;;;2.2;100.0;101390;;;;
2022/04/04 02:48:00;;;;;;;11.6;10.5;;;;;;;2.2;100.0;101390;;;;
2022/04/04 02:49:00;;;;;;;11.6;10.5;;;;;;;2.2;100.0;101380;;;;
2022/04/04 02:50:00;;;;;;;11.6;10.5;;;;;;;2.2;100.0;101380;;;;
2022/04/04 02:51:00;;;;;;;11.6;10.5;;;;;;;2.2;100.0;101380;;;;
2022/04/04 02:52:00;;;;;;;11.6;10.5;;;;;;;2.2;100.0;101380;;;;
2022/04/04 02:53:00;;;;;;;11.6;10.5;;;;;;;2.3;100.0;101380;;;;
2022/04/04 02:54:00;;;;;;;11.6;10.5;;;;;;;2.3;100.0;101380;;;;
2022/04/04 02:56:28;;;;;;;11.6;10.5;;;;;;;2.3;100.0;101380;;;;
2022/04/04 02:57:00;;;;;;;11.6;10.5;;;;;;;2.3;100.0;101380;;;;
2022/04/04 02:58:00;;;;;;;11.6;10.5;;;;;;;2.3;100.0;101380;;;;
2022/04/04 02:59:01;;;;;;;11.6;10.5;;;;;;;2.3;100.0;101370;;;;
2022/04/04 03:00:00;;;;;;;11.6;10.5;;;;;;;2.3;100.0;101370;;;;
2022/04/04 03:01:00;;;;;;;10.5;9.6;;;;;;;2.3;100.0;101360;;;;
2022/04/04 03:02:00;;;;;;;10.5;9.6;;;;;;;2.3;100.0;101360;;;;
2022/04/04 03:03:00;;;;;;;10.5;9.6;;;;;;;2.4;100.0;101360;;;;
2022/04/04 03:04:00;;;;;;;10.5;9.6;;;;;;;2.4;100.0;101360;;;;
2022/04/04 03:05:00;;;;;;;10.5;9.6;;;;;;;2.3;100.0;101360;;;;
2022/04/04 03:06:00;;;;;;;10.5;9.6;;;;;;;2.3;100.0;101360;;;;
2022/04/04 03:07:00;;;;;;;10.5;9.6;;;;;;;2.4;100.0;101350;;;;
2022/04/04 03:08:00;;;;;;;10.5;9.6;;;;;;;2.4;100.0;101350;;;;
2022/04/04 03:09:00;;;;;;;10.5;9.6;;;;;;;2.3;100.0;101340;;;;
2022/04/04 03:10:00;;;;;;;10.5;9.6;;;;;;;2.3;100.0;101340;;;;
2022/04/04 03:11:00;;;;;;;10.5;9.6;;;;;;;2.3;100.0;101340;;;;
2022/04/04 03:12:01;;;;;;;10.5;9.6;;;;;;;2.3;100.0;101340;;;;
2022/04/04 03:13:02;;;;;;;10.5;9.6;;;;;;;2.4;100.0;101340;;;;
2022/04/04 03:14:00;;;;;;;10.5;9.6;;;;;;;2.4;100.0;101340;;;;
2022/04/04 03:15:00;;;;;;;10.5;9.6;;;;;;;2.4;100.0;101330;;;;
2022/04/04 03:16:00;;;;;;;10.5;9.6;;;;;;;2.4;100.0;101330;;;;
2022/04/04 03:17:00;;;;;;;10.5;9.6;;;;;;;2.5;100.0;101320;;;;
2022/04/04 03:18:01;;;;;;;10.5;9.6;;;;;;;2.5;100.0;101320;;;;
2022/04/04 03:19:00;;;;;;;10.5;9.6;;;;;;;2.5;100.0;101330;;;;
2022/04/04 03:20:00;;;;;;;10.5;9.6;;;;;;;2.5;100.0;101330;;;;
2022/04/04 03:21:00;;;;;;;9.9;9.1;;;;;;;2.5;100.0;101320;;;;
2022/04/04 03:22:00;;;;;;;9.9;9.1;;;;;;;2.5;100.0;101320;;;;
2022/04/04 03:23:00;;;;;;;9.9;9.1;;;;;;;2.5;100.0;101320;;;;
2022/04/04 03:24:00;;;;;;;9.9;9.1;;;;;;;2.5;100.0;101320;;;;
2022/04/04 03:25:00;;;;;;;9.9;9.1;;;;;;;2.5;100.0;101310;;;;
2022/04/04 03:26:00;;;;;;;9.9;9.1;;;;;;;2.5;100.0;101310;;;;
2022/04/04 03:27:00;;;;;;;9.9;9.1;;;;;;;2.5;100.0;101310;;;;
2022/04/04 03:28:00;;;;;;;9.9;9.1;;;;;;;2.5;100.0;101310;;;;
2022/04/04 03:29:01;;;;;;;9.9;9.1;;;;;;;2.5;100.0;101300;;;;
2022/04/04 03:30:00;;;;;;;9.9;9.1;;;;;;;2.5;100.0;101300;;;;
2022/04/04 03:31:00;;;;;;;9.9;9.1;;;;;;;2.5;100.0;101310;;;;
2022/04/04 03:32:00;;;;;;;9.9;9.1;;;;;;;2.5;100.0;101310;;;;
2022/04/04 03:33:00;;;;;;;9.9;9.1;;;;;;;2.5;100.0;101300;;;;
2022/04/04 03:34:00;;;;;;;9.9;9.1;;;;;;;2.5;100.0;101300;;;;
2022/04/04 03:35:00;;;;;;;9.9;9.1;;;;;;;2.5;100.0;101300;;;;
2022/04/04 03:36:00;;;;;;;9.9;9.1;;;;;;;2.5;100.0;101300;;;;
2022/04/04 03:37:00;;;;;;;9.9;9.1;;;;;;;2.5;100.0;101290;;;;
2022/04/04 03:38:01;;;;;;;9.9;9.1;;;;;;;2.5;100.0;101290;;;;
2022/04/04 03:39:00;;;;;;;9.9;9.1;;;;;;;2.6;100.0;101290;;;;
2022/04/04 03:40:00;;;;;;;9.9;9.1;;;;;;;2.6;100.0;101290;;;;
2022/04/04 03:41:00;;;;;;;10.2;9.3;;;;;;;2.5;100.0;101290;;;;
2022/04/04 03:42:00;;;;;;;10.2;9.3;;;;;;;2.5;100.0;101290;;;;
2022/04/04 03:43:00;;;;;;;10.2;9.3;;;;;;;2.5;100.0;101290;;;;
2022/04/04 03:44:01;;;;;;;10.2;9.3;;;;;;;2.5;100.0;101290;;;;
2022/04/04 03:45:00;;;;;;;10.2;9.3;;;;;;;2.5;100.0;101280;;;;
2022/04/04 03:46:00;;;;;;;10.2;9.3;;;;;;;2.5;100.0;101280;;;;
2022/04/04 03:47:00;;;;;;;10.2;9.3;;;;;;;2.5;100.0;101280;;;;
2022/04/04 03:48:00;;;;;;;10.2;9.3;;;;;;;2.5;100.0;101280;;;;
2022/04/04 03:49:00;;;;;;;10.2;9.3;;;;;;;2.5;100.0;101270;;;;
2022/04/04 03:50:00;;;;;;;10.2;9.3;;;;;;;2.5;100.0;101270;;;;
2022/04/04 03:51:00;;;;;;;10.2;9.3;;;;;;;2.6;100.0;101270;;;;
2022/04/04 03:52:00;;;;;;;10.2;9.3;;;;;;;2.6;100.0;101270;;;;
2022/04/04 03:53:00;;;;;;;10.2;9.3;;;;;;;2.5;100.0;101270;;;;
2022/04/04 03:54:00;;;;;;;10.2;9.3;;;;;;;2.5;100.0;101270;;;;
2022/04/04 03:55:00;;;;;;;10.2;9.3;;;;;;;2.6;100.0;101260;;;;
2022/04/04 03:56:00;;;;;;;10.2;9.3;;;;;;;2.6;100.0;101260;;;;
2022/04/04 03:57:00;;;;;;;10.2;9.3;;;;;;;2.5;100.0;101250;;;;
2022/04/04 03:58:00;;;;;;;10.2;9.3;;;;;;;2.5;100.0;101250;;;;
2022/04/04 03:59:00;;;;;;;10.2;9.3;;;;;;;2.6;100.0;101250;;;;
2022/04/04 04:00:00;;;;;;;10.2;9.3;;;;;;;2.6;100.0;101250;;;;
2022/04/04 04:01:00;;;;;;;10.4;8.5;;;;;;;2.5;100.0;101250;;;;
2022/04/04 04:02:00;;;;;;;10.4;8.5;;;;;;;2.5;100.0;101250;;;;
2022/04/04 04:03:00;;;;;;;10.4;8.5;;;;;;;2.6;100.0;101250;;;;
2022/04/04 04:04:00;;;;;;;10.4;8.5;;;;;;;2.6;100.0;101250;;;;
2022/04/04 04:05:00;;;;;;;10.4;8.5;;;;;;;2.5;100.0;101240;;;;
2022/04/04 04:07:00;;;;;;;10.4;8.5;;;;;;;2.5;100.0;101250;;;;
2022/04/04 04:08:00;;;;;;;10.4;8.5;;;;;;;2.5;100.0;101250;;;;
2022/04/04 04:09:00;;;;;;;10.4;8.5;;;;;;;2.5;100.0;101240;;;;
2022/04/04 04:10:00;;;;;;;10.4;8.5;;;;;;;2.5;100.0;101240;;;;
2022/04/04 04:11:00;;;;;;;10.4;8.5;;;;;;;2.5;100.0;101240;;;;
2022/04/04 04:12:00;;;;;;;10.4;8.5;;;;;;;2.5;100.0;101240;;;;
2022/04/04 04:13:02;;;;;;;10.4;8.5;;;;;;;2.5;100.0;101230;;;;
2022/04/04 04:14:00;;;;;;;10.4;8.5;;;;;;;2.5;100.0;101230;;;;
2022/04/04 04:15:00;;;;;;;10.4;8.5;;;;;;;2.5;100.0;101230;;;;
2022/04/04 04:16:00;;;;;;;10.4;8.5;;;;;;;2.5;100.0;101230;;;;
2022/04/04 04:17:00;;;;;;;10.4;8.5;;;;;;;2.5;100.0;101220;;;;
2022/04/04 04:18:00;;;;;;;10.4;8.5;;;;;;;2.5;100.0;101220;;;;
2022/04/04 04:19:00;;;;;;;10.4;8.5;;;;;;;2.5;100.0;101220;;;;
2022/04/04 04:21:00;;;;;;;10.2;9.3;;;;;;;2.5;100.0;101210;;;;
2022/04/04 04:22:00;;;;;;;10.2;9.3;;;;;;;2.5;100.0;101210;;;;
2022/04/04 04:23:02;;;;;;;10.2;9.3;;;;;;;2.5;100.0;101210;;;;
2022/04/04 04:24:00;;;;;;;10.2;9.3;;;;;;;2.5;100.0;101210;;;;
2022/04/04 04:25:00;;;;;;;10.2;9.3;;;;;;;2.5;100.0;101210;;;;
2022/04/04 04:26:00;;;;;;;10.2;9.3;;;;;;;2.5;100.0;101210;;;;
2022/04/04 04:27:00;;;;;;;10.2;9.3;;;;;;;2.5;100.0;101200;;;;
2022/04/04 04:28:01;;;;;;;10.2;9.3;;;;;;;2.5;100.0;101200;;;;
2022/04/04 04:29:00;;;;;;;10.2;9.3;;;;;;;2.5;100.0;101200;;;;
2022/04/04 04:30:00;;;;;;;10.2;9.3;;;;;;;2.5;100.0;101200;;;;
2022/04/04 04:31:00;;;;;;;10.2;9.3;;;;;;;2.6;100.0;101200;;;;
2022/04/04 04:32:00;;;;;;;10.2;9.3;;;;;;;2.6;100.0;101200;;;;
2022/04/04 04:33:00;;;;;;;10.2;9.3;;;;;;;2.6;100.0;101190;;;;
2022/04/04 04:34:00;;;;;;;10.2;9.3;;;;;;;2.6;100.0;101190;;;;
2022/04/04 04:35:00;;;;;;;10.2;9.3;;;;;;;2.6;100.0;101190;;;;
2022/04/04 04:36:00;;;;;;;10.2;9.3;;;;;;;2.6;100.0;101190;;;;
2022/04/04 04:37:01;;;;;;;10.2;9.3;;;;;;;2.6;100.0;101180;;;;
2022/04/04 04:38:00;;;;;;;10.2;9.3;;;;;;;2.6;100.0;101180;;;;
2022/04/04 04:39:00;;;;;;;10.2;9.3;;;;;;;2.6;100.0;101180;;;;
2022/04/04 04:40:00;;;;;;;10.2;9.3;;;;;;;2.6;100.0;101180;;;;
2022/04/04 04:41:00;;;;;;;10.3;9.3;;;;;;;2.6;100.0;101180;;;;
2022/04/04 04:42:00;;;;;;;10.3;9.3;;;;;;;2.6;100.0;101180;;;;
2022/04/04 04:43:00;;;;;;;10.3;9.3;;;;;;;2.7;100.0;101160;;;;
2022/04/04 04:44:03;;;;;;;10.3;9.3;;;;;;;2.7;100.0;101160;;;;
2022/04/04 04:45:01;;;;;;;10.3;9.3;;;;;;;2.6;100.0;101160;;;;
2022/04/04 04:46:00;;;;;;;10.3;9.3;;;;;;;2.6;100.0;101160;;;;
2022/04/04 04:47:00;;;;;;;10.3;9.3;;;;;;;2.6;100.0;101160;;;;
2022/04/04 04:48:00;;;;;;;10.3;9.3;;;;;;;2.6;100.0;101160;;;;
2022/04/04 04:49:00;;;;;;;10.3;9.3;;;;;;;2.6;100.0;101160;;;;
2022/04/04 04:50:01;;;;;;;10.3;9.3;;;;;;;2.6;100.0;101160;;;;
2022/04/04 04:51:00;;;;;;;10.3;9.3;;;;;;;2.6;100.0;101160;;;;
2022/04/04 04:52:00;;;;;;;10.3;9.3;;;;;;;2.6;100.0;101160;;;;
2022/04/04 04:53:00;;;;;;;10.3;9.3;;;;;;;2.6;100.0;101150;;;;
2022/04/04 04:54:00;;;;;;;10.3;9.3;;;;;;;2.6;100.0;101150;;;;
2022/04/04 04:55:01;;;;;;;10.3;9.3;;;;;;;2.6;100.0;101150;;;;
2022/04/04 04:56:00;;;;;;;10.3;9.3;;;;;;;2.6;100.0;101150;;;;
2022/04/04 04:57:00;;;;;;;10.3;9.3;;;;;;;2.7;100.0;101150;;;;
2022/04/04 04:58:00;;;;;;;10.3;9.3;;;;;;;2.7;100.0;101150;;;;
2022/04/04 04:59:00;;;;;;;10.3;9.3;;;;;;;2.7;100.0;101140;;;;
2022/04/04 05:00:03;;;;;;;10.3;9.3;;;;;;;2.7;100.0;101140;;;;
2022/04/04 05:01:00;;;;;;;10.9;9.9;;;;;;;2.7;100.0;101140;;;;
2022/04/04 05:02:00;;;;;;;10.9;9.9;;;;;;;2.7;100.0;101140;;;;
2022/04/04 05:04:00;;;;;;;10.9;9.9;;;;;;;2.7;100.0;101140;;;;
2022/04/04 05:05:00;;;;;;;10.9;9.9;;;;;;;2.8;100.0;101140;;;;
2022/04/04 05:06:00;;;;;;;10.9;9.9;;;;;;;2.8;100.0;101140;;;;
2022/04/04 05:07:00;;;;;;;10.9;9.9;;;;;;;2.7;100.0;101130;;;;
2022/04/04 05:08:00;;;;;;;10.9;9.9;;;;;;;2.7;100.0;101130;;;;
2022/04/04 05:09:00;;;;;;;10.9;9.9;;;;;;;2.7;100.0;101130;;;;
2022/04/04 05:10:00;;;;;;;10.9;9.9;;;;;;;2.7;100.0;101130;;;;
2022/04/04 05:11:00;;;;;;;10.9;9.9;;;;;;;2.8;100.0;101120;;;;
2022/04/04 05:12:00;;;;;;;10.9;9.9;;;;;;;2.8;100.0;101120;;;;
2022/04/04 05:13:00;;;;;;;10.9;9.9;;;;;;;2.8;100.0;101120;;;;
2022/04/04 05:14:00;;;;;;;10.9;9.9;;;;;;;2.8;100.0;101120;;;;
2022/04/04 05:15:00;;;;;;;10.9;9.9;;;;;;;2.8;100.0;101120;;;;
2022/04/04 05:16:00;;;;;;;10.9;9.9;;;;;;;2.8;100.0;101120;;;;
2022/04/04 05:17:00;;;;;;;10.9;9.9;;;;;;;2.8;100.0;101120;;;;
2022/04/04 05:18:00;;;;;;;10.9;9.9;;;;;;;2.8;100.0;101120;;;;
2022/04/04 05:19:00;;;;;;;10.9;9.9;;;;;;;2.8;100.0;101110;;;;
2022/04/04 05:20:00;;;;;;;11.4;10.2;;;;;;;2.8;100.0;101110;;;;
2022/04/04 05:21:00;;;;;;;11.4;10.2;;;;;;;2.9;100.0;101110;;;;
2022/04/04 05:22:00;;;;;;;11.4;10.2;;;;;;;2.9;100.0;101110;;;;
2022/04/04 05:23:00;;;;;;;11.4;10.2;;;;;;;2.9;100.0;101100;;;;
2022/04/04 05:24:00;;;;;;;11.4;10.2;;;;;;;2.9;100.0;101100;;;;
2022/04/04 05:25:00;;;;;;;11.4;10.2;;;;;;;3.0;100.0;101090;;;;
2022/04/04 05:26:00;;;;;;;11.4;10.2;;;;;;;3.0;100.0;101090;;;;
2022/04/04 05:27:00;;;;;;;11.4;10.2;;;;;;;3.0;100.0;101090;;;;
2022/04/04 05:28:00;;;;;;;11.4;10.2;;;;;;;3.0;100.0;101090;;;;
2022/04/04 05:29:04;;;;;;;11.4;10.2;;;;;;;3.0;100.0;101080;;;;
2022/04/04 05:30:00;;;;;;;11.4;10.2;;;;;;;3.0;100.0;101080;;;;
2022/04/04 05:31:00;;;;;;;11.4;10.2;;;;;;;3.0;100.0;101090;;;;
2022/04/04 05:32:00;;;;;;;11.4;10.2;;;;;;;3.0;100.0;101090;;;;
2022/04/04 05:33:00;;;;;;;11.4;10.2;;;;;;;3.0;100.0;101080;;;;
2022/04/04 05:34:01;;;;;;;11.4;10.2;;;;;;;3.0;100.0;101080;;;;
2022/04/04 05:35:00;;;;;;;11.4;10.2;;;;;;;3.1;100.0;101080;;;;
2022/04/04 05:36:00;;;;;;;11.4;10.2;;;;;;;3.1;100.0;101080;;;;
2022/04/04 05:37:00;;;;;;;11.4;10.2;;;;;;;3.1;100.0;101070;;;;
2022/04/04 05:38:00;;;;;;;11.4;10.2;;;;;;;3.1;100.0;101070;;;;
2022/04/04 05:39:00;;;;;;;11.4;10.2;;;;;;;3.1;100.0;101070;;;;
2022/04/04 05:40:00;;;;;;;11.3;10.2;;;;;;;3.1;100.0;101070;;;;
2022/04/04 05:41:00;;;;;;;11.3;10.2;;;;;;;3.2;100.0;101070;;;;
2022/04/04 05:42:00;;;;;;;11.3;10.2;;;;;;;3.2;100.0;101070;;;;
2022/04/04 05:43:00;;;;;;;11.3;10.2;;;;;;;3.2;100.0;101060;;;;
2022/04/04 05:44:00;;;;;;;11.3;10.2;;;;;;;3.2;100.0;101060;;;;
2022/04/04 05:45:00;;;;;;;11.3;10.2;;;;;;;3.3;100.0;101060;;;;
2022/04/04 05:46:00;;;;;;;11.3;10.2;;;;;;;3.3;100.0;101060;;;;
2022/04/04 05:47:00;;;;;;;11.3;10.2;;;;;;;3.3;100.0;101060;;;;
2022/04/04 05:48:00;;;;;;;11.3;10.2;;;;;;;3.3;100.0;101060;;;;
2022/04/04 05:49:00;;;;;;;11.3;10.2;;;;;;;3.3;100.0;101060;;;;
2022/04/04 05:50:00;;;;;;;11.3;10.2;;;;;;;3.3;100.0;101060;;;;
2022/04/04 05:51:00;;;;;;;11.3;10.2;;;;;;;3.3;100.0;101050;;;;
2022/04/04 05:52:03;;;;;;;11.3;10.2;;;;;;;3.3;100.0;101050;;;;
2022/04/04 05:53:00;;;;;;;11.3;10.2;;;;;;;3.3;100.0;101040;;;;
2022/04/04 05:54:00;;;;;;;11.3;10.2;;;;;;;3.3;100.0;101040;;;;
2022/04/04 05:55:01;;;;;;;11.3;10.2;;;;;;;3.4;100.0;101040;;;;
2022/04/04 05:56:00;;;;;;;11.3;10.2;;;;;;;3.4;100.0;101040;;;;
2022/04/04 05:57:00;;;;;;;11.3;10.2;;;;;;;3.4;100.0;101040;;;;
2022/04/04 05:58:00;;;;;;;11.3;10.2;;;;;;;3.4;100.0;101040;;;;
2022/04/04 05:59:00;;;;;;;11.3;10.2;;;;;;;3.4;100.0;101030;;;;
2022/04/04 06:00:00;;;;;;;12.0;11.0;;;;;;;3.4;100.0;101030;;;;
2022/04/04 06:01:00;;;;;;;12.0;11.0;;;;;;;3.5;100.0;101020;;;;
2022/04/04 06:02:00;;;;;;;12.0;11.0;;;;;;;3.5;100.0;101020;;;;
2022/04/04 06:03:01;;;;;;;12.0;11.0;;;;;;;3.5;100.0;101030;;;;
2022/04/04 06:04:00;;;;;;;12.0;11.0;;;;;;;3.5;100.0;101030;;;;
2022/04/04 06:05:00;;;;;;;12.0;11.0;;;;;;;3.5;100.0;101030;;;;
2022/04/04 06:06:01;;;;;;;12.0;11.0;;;;;;;3.5;100.0;101030;;;;
2022/04/04 06:07:00;;;;;;;12.0;11.0;;;;;;;3.6;100.0;101020;;;;
2022/04/04 06:08:00;;;;;;;12.0;11.0;;;;;;;3.6;100.0;101020;;;;
2022/04/04 06:09:00;;;;;;;12.0;11.0;;;;;;;3.6;100.0;101020;;;;
2022/04/04 06:10:01;;;;;;;12.0;11.0;;;;;;;3.6;100.0;101020;;;;
2022/04/04 06:11:00;;;;;;;12.0;11.0;;;;;;;3.6;100.0;101010;;;;
2022/04/04 06:12:00;;;;;;;12.0;11.0;;;;;;;3.6;100.0;101010;;;;
2022/04/04 06:13:00;;;;;;;12.0;11.0;;;;;;;3.7;100.0;101020;;;;
2022/04/04 06:14:00;;;;;;;12.0;11.0;;;;;;;3.7;100.0;101020;;;;
2022/04/04 06:15:00;;;;;;;12.0;11.0;;;;;;;3.7;100.0;101010;;;;
2022/04/04 06:16:00;;;;;;;12.0;11.0;;;;;;;3.7;100.0;101010;;;;
2022/04/04 06:17:00;;;;;;;12.0;11.0;;;;;;;3.6;100.0;101010;;;;
2022/04/04 06:18:00;;;;;;;12.0;11.0;;;;;;;3.6;100.0;101010;;;;
2022/04/04 06:19:00;;;;;;;12.0;11.0;;;;;;;3.7;100.0;101000;;;;
2022/04/04 06:20:00;;;;;;;12.6;11.4;;;;;;;3.7;100.0;101000;;;;
2022/04/04 06:21:00;;;;;;;12.6;11.4;;;;;;;3.7;100.0;101000;;;;
2022/04/04 06:22:03;;;;;;;12.6;11.4;;;;;;;3.7;100.0;101000;;;;
2022/04/04 06:23:00;;;;;;;12.6;11.4;;;;;;;3.8;100.0;101000;;;;
2022/04/04 06:24:00;;;;;;;12.6;11.4;;;;;;;3.8;100.0;101000;;;;
2022/04/04 06:25:00;;;;;;;12.6;11.4;;;;;;;3.9;100.0;101000;;;;
2022/04/04 06:26:00;;;;;;;12.6;11.4;;;;;;;3.9;100.0;101000;;;;